Time;durP1;ratioP1;P1;durP2;ratioP2;P2;SDS_P1;SDS_P2;PMS_P1;PMS_P2;Temp;Humidity;BMP_temperature;BMP_pressure;BME280_temperature;BME280_humidity;BME280_pressure;Samples;Min_cycle;Max_cycle;Signal;HPM_P1;HPM_P2
2022/07/11 00:01:05;;;;;;;4.13;1.23;;;18.70;99.90;;;;;;5071105;28;20196;-61
2022/07/11 00:03:33;;;;;;;3.55;0.85;;;18.80;99.90;;;;;;5071393;28;20278;-61
2022/07/11 00:05:59;;;;;;;1.80;0.98;;;18.70;99.90;;;;;;5071412;28;20209;-61
2022/07/11 00:08:26;;;;;;;2.15;0.60;;;18.70;99.90;;;;;;5071597;28;20304;-60
2022/07/11 00:10:53;;;;;;;1.50;0.73;;;18.60;99.90;;;;;;5071451;28;20259;-61
2022/07/11 00:13:20;;;;;;;3.17;1.00;;;18.60;99.90;;;;;;5071272;28;20232;-60
2022/07/11 00:15:46;;;;;;;1.70;0.80;;;18.60;99.90;;;;;;5071367;28;20621;-61
2022/07/11 00:18:13;;;;;;;2.65;0.90;;;18.60;99.90;;;;;;5071413;28;20212;-61
2022/07/11 00:20:41;;;;;;;4.50;1.30;;;18.60;99.90;;;;;;5071507;28;20201;-61
2022/07/11 00:23:08;;;;;;;3.15;0.98;;;18.50;99.90;;;;;;5074946;28;20716;-61
2022/07/11 00:25:34;;;;;;;1.77;0.90;;;18.50;99.90;;;;;;5075659;28;20213;-61
2022/07/11 00:28:01;;;;;;;2.75;1.08;;;18.50;99.90;;;;;;5075169;28;20400;-61
2022/07/11 00:30:28;;;;;;;2.55;1.40;;;18.40;99.90;;;;;;5075097;28;20282;-61
2022/07/11 00:32:54;;;;;;;2.78;1.50;;;18.50;99.90;;;;;;5074647;28;20731;-61
2022/07/11 00:35:21;;;;;;;2.97;1.38;;;18.40;99.90;;;;;;5074763;28;20594;-61
2022/07/11 00:37:49;;;;;;;3.05;1.40;;;18.40;99.90;;;;;;5074869;28;20209;-61
2022/07/11 00:40:16;;;;;;;2.85;1.00;;;18.40;99.90;;;;;;5075018;28;20562;-61
2022/07/11 00:42:43;;;;;;;2.75;1.00;;;18.40;99.90;;;;;;5074615;28;20244;-61
2022/07/11 00:45:10;;;;;;;4.43;1.13;;;18.40;99.90;;;;;;5074991;28;20204;-61
2022/07/11 00:47:37;;;;;;;3.05;1.33;;;18.40;99.90;;;;;;5074774;28;20338;-61
2022/07/11 00:50:04;;;;;;;2.70;1.15;;;18.40;99.90;;;;;;5074624;28;20251;-61
2022/07/11 00:52:31;;;;;;;1.88;1.00;;;18.40;99.90;;;;;;5074226;28;20271;-60
2022/07/11 00:55:03;;;;;;;1.35;0.85;;;18.30;99.90;;;;;;5074732;28;20235;-61
2022/07/11 00:57:31;;;;;;;2.90;1.00;;;18.30;99.90;;;;;;5074658;28;20212;-60
2022/07/11 00:59:58;;;;;;;1.38;1.02;;;18.30;99.90;;;;;;5074547;28;20694;-61
2022/07/11 01:02:25;;;;;;;2.00;1.30;;;18.30;99.90;;;;;;5074136;28;20225;-61
2022/07/11 01:04:51;;;;;;;2.97;1.15;;;18.30;99.90;;;;;;5074411;28;20288;-61
2022/07/11 01:07:18;;;;;;;2.55;1.00;;;18.30;99.90;;;;;;5074345;28;20204;-61
2022/07/11 01:09:45;;;;;;;1.95;0.82;;;18.30;99.90;;;;;;5074509;28;20258;-62
2022/07/11 01:12:14;;;;;;;2.72;0.90;;;18.20;99.90;;;;;;5074082;28;20225;-61
2022/07/11 01:14:50;;;;;;;5.97;1.35;;;18.20;99.90;;;;;;5074376;28;20229;-62
2022/07/11 01:17:17;;;;;;;3.47;1.20;;;18.20;99.90;;;;;;5074423;28;20318;-62
2022/07/11 01:19:44;;;;;;;1.35;1.02;;;18.10;99.90;;;;;;5073961;28;20617;-63
2022/07/11 01:22:14;;;;;;;1.77;1.20;;;18.10;99.90;;;;;;5073919;28;20716;-62
2022/07/11 01:24:43;;;;;;;2.92;1.25;;;18.10;99.90;;;;;;5074178;28;20209;-61
2022/07/11 01:27:10;;;;;;;2.70;1.20;;;18.00;99.90;;;;;;5073996;28;20262;-61
2022/07/11 01:29:37;;;;;;;1.75;1.13;;;18.00;99.90;;;;;;5073955;28;20211;-61
2022/07/11 01:32:04;;;;;;;1.55;1.20;;;17.90;99.90;;;;;;5073016;28;20278;-61
2022/07/11 01:34:31;;;;;;;4.03;1.45;;;17.90;99.90;;;;;;5074139;28;20612;-61
2022/07/11 01:36:58;;;;;;;5.15;1.40;;;17.90;99.90;;;;;;5073965;28;20269;-61
2022/07/11 01:39:24;;;;;;;2.28;1.23;;;17.90;99.90;;;;;;5073818;28;20216;-62
2022/07/11 01:41:52;;;;;;;1.92;1.30;;;18.00;99.90;;;;;;5073684;28;20212;-61
2022/07/11 01:44:19;;;;;;;1.52;1.02;;;17.90;99.90;;;;;;5073557;28;20242;-61
2022/07/11 01:46:46;;;;;;;2.67;1.13;;;17.90;99.90;;;;;;5073470;28;20212;-61
2022/07/11 01:49:12;;;;;;;3.50;1.13;;;17.90;99.90;;;;;;5073724;28;20209;-61
2022/07/11 01:51:39;;;;;;;3.40;1.13;;;17.90;99.90;;;;;;5073735;28;20208;-61
2022/07/11 01:54:06;;;;;;;2.17;1.30;;;17.90;99.90;;;;;;5073219;28;20256;-61
2022/07/11 01:56:33;;;;;;;3.20;1.20;;;17.90;99.90;;;;;;5073552;28;20205;-61
2022/07/11 01:59:01;;;;;;;2.58;1.15;;;18.00;99.90;;;;;;5073505;28;20588;-61
2022/07/11 02:01:28;;;;;;;2.78;1.20;;;18.10;99.90;;;;;;5073341;28;20213;-61
2022/07/11 02:03:55;;;;;;;2.00;1.30;;;18.10;99.90;;;;;;5073632;28;20290;-62
2022/07/11 02:06:21;;;;;;;2.90;1.38;;;18.10;99.90;;;;;;5073354;28;20208;-61
2022/07/11 02:08:48;;;;;;;2.67;1.40;;;18.10;99.90;;;;;;5073478;28;20213;-61
2022/07/11 02:11:15;;;;;;;4.18;1.23;;;17.90;99.90;;;;;;5073237;28;20209;-61
2022/07/11 02:13:41;;;;;;;1.25;1.00;;;17.90;99.90;;;;;;5072698;28;20278;-61
2022/07/11 02:16:09;;;;;;;2.55;1.10;;;17.80;99.90;;;;;;5073365;28;20266;-61
2022/07/11 02:18:36;;;;;;;3.22;1.40;;;17.80;99.90;;;;;;5073192;28;20213;-61
2022/07/11 02:21:03;;;;;;;1.42;1.00;;;17.80;99.90;;;;;;5073041;28;20205;-61
2022/07/11 02:23:30;;;;;;;2.50;1.30;;;17.80;99.90;;;;;;5072821;28;20235;-62
2022/07/11 02:25:57;;;;;;;3.35;1.10;;;17.70;99.90;;;;;;5072768;28;20201;-61
2022/07/11 02:28:23;;;;;;;1.92;1.02;;;17.70;99.90;;;;;;5072604;28;20212;-61
2022/07/11 02:30:50;;;;;;;4.68;2.92;;;17.60;99.90;;;;;;5072572;28;20684;-62
2022/07/11 02:33:18;;;;;;;4.43;2.40;;;17.50;99.90;;;;;;5072526;28;20232;-61
2022/07/11 02:35:45;;;;;;;4.65;2.22;;;17.60;99.90;;;;;;5072593;28;20231;-61
2022/07/11 02:38:13;;;;;;;2.13;1.13;;;17.70;99.90;;;;;;5072711;28;20205;-61
2022/07/11 02:40:40;;;;;;;3.58;1.92;;;17.80;99.90;;;;;;5072617;28;20251;-61
2022/07/11 02:43:07;;;;;;;3.03;1.23;;;17.90;99.90;;;;;;5071747;28;20240;-62
2022/07/11 02:45:36;;;;;;;3.17;1.58;;;18.00;99.90;;;;;;5072112;28;20266;-61
2022/07/11 02:48:02;;;;;;;2.08;1.17;;;18.00;99.90;;;;;;5072454;28;20200;-61
2022/07/11 02:50:31;;;;;;;2.22;1.13;;;18.00;99.90;;;;;;5072312;28;20573;-62
2022/07/11 02:52:57;;;;;;;2.42;1.17;;;18.00;99.90;;;;;;5072064;28;20319;-61
2022/07/11 02:55:24;;;;;;;3.83;2.22;;;18.00;99.90;;;;;;5072523;28;20228;-61
2022/07/11 02:57:51;;;;;;;3.40;1.25;;;18.00;99.90;;;;;;5072549;28;20201;-61
2022/07/11 03:00:19;;;;;;;3.58;1.20;;;18.00;99.90;;;;;;5072340;28;20583;-61
2022/07/11 03:02:46;;;;;;;4.72;1.48;;;17.90;99.90;;;;;;5071935;28;20232;-61
2022/07/11 03:05:13;;;;;;;2.25;1.30;;;17.90;99.90;;;;;;5072071;28;20204;-61
2022/07/11 03:07:41;;;;;;;4.53;1.30;;;17.80;99.90;;;;;;5072106;28;20660;-61
2022/07/11 03:10:09;;;;;;;2.35;1.35;;;17.70;99.90;;;;;;5072025;28;20213;-61
2022/07/11 03:12:35;;;;;;;2.95;1.17;;;17.70;99.90;;;;;;5071891;28;20225;-61
2022/07/11 03:15:02;;;;;;;3.20;1.30;;;17.80;99.90;;;;;;5071921;28;20225;-61
2022/07/11 03:17:29;;;;;;;4.25;1.35;;;17.80;99.90;;;;;;5072050;28;20204;-61
2022/07/11 03:19:56;;;;;;;2.90;1.13;;;17.80;99.90;;;;;;5072224;28;20205;-61
2022/07/11 03:22:23;;;;;;;2.92;1.40;;;17.80;99.90;;;;;;5071604;28;20668;-61
2022/07/11 03:24:51;;;;;;;2.28;1.35;;;17.80;99.90;;;;;;5071768;28;20212;-62
2022/07/11 03:27:18;;;;;;;1.90;1.42;;;17.70;99.90;;;;;;5071983;28;20209;-62
2022/07/11 03:29:45;;;;;;;3.55;2.53;;;17.70;99.90;;;;;;5071957;28;20208;-61
2022/07/11 03:32:11;;;;;;;3.17;2.13;;;17.80;99.90;;;;;;5071555;28;20258;-62
2022/07/11 03:34:38;;;;;;;3.73;2.10;;;17.80;99.90;;;;;;5071722;28;20221;-62
2022/07/11 03:37:05;;;;;;;3.78;2.05;;;17.90;99.90;;;;;;5071615;28;20212;-62
2022/07/11 03:39:32;;;;;;;4.53;2.03;;;17.90;99.90;;;;;;5071997;28;20236;-62
2022/07/11 03:42:01;;;;;;;4.60;2.33;;;17.90;99.90;;;;;;5071500;28;20208;-62
2022/07/11 03:44:27;;;;;;;3.20;2.10;;;17.90;99.90;;;;;;5097126;22;20232;-58
2022/07/11 03:46:54;;;;;;;3.28;2.00;;;17.90;99.90;;;;;;5072846;28;20212;-59
2022/07/11 03:49:21;;;;;;;3.25;2.05;;;17.90;99.90;;;;;;5073847;28;20200;-59
2022/07/11 03:51:47;;;;;;;3.50;2.20;;;18.00;99.90;;;;;;5073096;28;20216;-59
2022/07/11 03:54:14;;;;;;;3.72;2.47;;;18.00;99.90;;;;;;5072746;28;20433;-59
2022/07/11 03:56:41;;;;;;;3.40;2.15;;;18.10;99.90;;;;;;5077251;28;20211;-59
2022/07/11 03:59:09;;;;;;;4.35;2.17;;;18.00;99.90;;;;;;5077249;28;20205;-59
2022/07/11 04:01:36;;;;;;;4.18;1.73;;;18.10;99.90;;;;;;5077481;28;20270;-59
2022/07/11 04:04:03;;;;;;;1.80;1.33;;;18.20;99.90;;;;;;5077249;28;20224;-59
2022/07/11 04:06:29;;;;;;;4.18;1.70;;;18.10;99.90;;;;;;5078399;28;20216;-59
2022/07/11 04:08:56;;;;;;;3.75;1.65;;;18.10;99.90;;;;;;5077452;28;20200;-59
2022/07/11 04:11:23;;;;;;;3.30;1.90;;;18.20;99.90;;;;;;5077400;28;20211;-59
2022/07/11 04:13:50;;;;;;;3.13;2.10;;;18.20;99.90;;;;;;5078257;28;20235;-59
2022/07/11 04:16:19;;;;;;;5.85;2.08;;;18.30;99.90;;;;;;5077156;28;20609;-59
2022/07/11 04:18:45;;;;;;;5.13;2.70;;;18.40;99.90;;;;;;5077772;28;20209;-59
2022/07/11 04:21:12;;;;;;;2.45;2.00;;;18.40;99.90;;;;;;5077859;28;20574;-60
2022/07/11 04:23:39;;;;;;;2.65;1.80;;;18.60;99.90;;;;;;5077710;28;20228;-59
2022/07/11 04:26:06;;;;;;;2.53;1.90;;;18.60;99.90;;;;;;5077360;28;20201;-59
2022/07/11 04:28:32;;;;;;;3.78;1.70;;;18.60;99.90;;;;;;5077478;28;20312;-59
2022/07/11 04:30:59;;;;;;;3.40;2.10;;;18.70;99.90;;;;;;5060613;28;20535;-59
2022/07/11 04:33:27;;;;;;;2.60;1.90;;;18.70;99.90;;;;;;5070518;28;20571;-61
2022/07/11 04:35:54;;;;;;;3.50;1.90;;;18.70;99.90;;;;;;5077530;28;20274;-62
2022/07/11 04:38:22;;;;;;;4.75;2.05;;;18.80;99.90;;;;;;5077522;28;20201;-61
2022/07/11 04:40:49;;;;;;;4.97;2.00;;;18.80;99.90;;;;;;5080023;28;20204;-66
2022/07/11 04:43:16;;;;;;;4.32;1.70;;;18.90;99.90;;;;;;5078056;28;20260;-63
2022/07/11 04:45:42;;;;;;;5.82;2.15;;;19.00;99.90;;;;;;5076166;28;20204;-60
2022/07/11 04:48:09;;;;;;;2.83;1.80;;;19.10;99.90;;;;;;5076711;28;20208;-60
2022/07/11 04:50:38;;;;;;;4.95;1.60;;;19.20;99.90;;;;;;5076429;28;20212;-61
2022/07/11 04:53:04;;;;;;;3.08;1.85;;;19.30;99.90;;;;;;5076126;28;20229;-60
2022/07/11 04:55:31;;;;;;;3.67;2.13;;;19.40;99.90;;;;;;5076660;28;20229;-59
2022/07/11 04:57:58;;;;;;;3.63;1.60;;;19.60;99.90;;;;;;5076782;28;20216;-62
2022/07/11 05:00:24;;;;;;;4.30;3.00;;;19.80;99.90;;;;;;5076554;28;20205;-60
2022/07/11 05:02:52;;;;;;;2.58;1.67;;;19.90;99.90;;;;;;5077227;28;20229;-60
2022/07/11 05:05:19;;;;;;;1.70;1.40;;;19.90;99.90;;;;;;5076732;28;20687;-61
2022/07/11 05:07:47;;;;;;;2.45;1.52;;;19.90;99.90;;;;;;5074147;28;20213;-61
2022/07/11 05:10:14;;;;;;;3.78;1.80;;;19.90;99.90;;;;;;5074812;28;20209;-60
2022/07/11 05:12:41;;;;;;;2.15;1.90;;;20.00;99.90;;;;;;5074407;28;20228;-60
2022/07/11 05:15:09;;;;;;;2.35;1.60;;;20.20;99.90;;;;;;5074995;28;20623;-60
2022/07/11 05:17:36;;;;;;;3.30;2.22;;;20.40;99.90;;;;;;5074224;28;20608;-60
2022/07/11 05:20:03;;;;;;;1.88;1.67;;;20.70;99.90;;;;;;5075460;28;20216;-63
2022/07/11 05:22:30;;;;;;;3.97;1.70;;;20.80;99.90;;;;;;5075346;28;20274;-62
2022/07/11 05:24:58;;;;;;;3.80;2.10;;;21.00;99.90;;;;;;5076908;28;20212;-61
2022/07/11 05:27:24;;;;;;;3.13;1.90;;;21.00;99.90;;;;;;5075171;28;20209;-62
2022/07/11 05:29:51;;;;;;;2.90;1.83;;;21.10;99.90;;;;;;5076174;28;20219;-61
2022/07/11 05:32:18;;;;;;;2.85;1.60;;;21.10;99.90;;;;;;5077169;28;20205;-60
2022/07/11 05:34:44;;;;;;;5.47;1.80;;;21.20;99.90;;;;;;5075577;28;20216;-61
2022/07/11 05:37:11;;;;;;;2.55;1.73;;;21.30;99.90;;;;;;5074639;28;20205;-61
2022/07/11 05:39:38;;;;;;;2.92;1.80;;;21.40;99.90;;;;;;5074789;28;20660;-59
2022/07/11 05:42:07;;;;;;;3.63;1.63;;;21.60;99.90;;;;;;5074790;28;20655;-62
2022/07/11 05:44:35;;;;;;;3.55;2.13;;;21.60;99.90;;;;;;5074747;28;20737;-61
2022/07/11 05:47:02;;;;;;;2.13;1.67;;;21.60;99.90;;;;;;5074117;28;20212;-62
2022/07/11 05:49:29;;;;;;;4.55;2.00;;;21.70;99.90;;;;;;5073988;28;20296;-60
2022/07/11 05:51:55;;;;;;;2.17;1.70;;;21.70;99.90;;;;;;5074647;28;20628;-62
2022/07/11 05:54:22;;;;;;;2.40;2.00;;;21.70;99.90;;;;;;5075026;28;20252;-61
2022/07/11 05:56:49;;;;;;;3.17;2.00;;;21.90;99.90;;;;;;5073586;28;20220;-59
2022/07/11 05:59:17;;;;;;;2.83;1.63;;;22.10;99.90;;;;;;5073283;28;20242;-59
2022/07/11 06:01:44;;;;;;;3.55;1.92;;;22.30;99.90;;;;;;5073647;28;20216;-59
2022/07/11 06:04:10;;;;;;;3.38;2.20;;;22.40;99.90;;;;;;5073130;28;20373;-58
2022/07/11 06:06:37;;;;;;;2.45;1.80;;;22.60;99.90;;;;;;5075175;28;20244;-57
2022/07/11 06:09:03;;;;;;;2.42;2.00;;;22.60;99.90;;;;;;5074571;28;20204;-57
2022/07/11 06:11:29;;;;;;;1.80;1.60;;;22.50;99.90;;;;;;5075209;28;20208;-57
2022/07/11 06:13:56;;;;;;;4.78;1.80;;;22.40;99.90;;;;;;5073869;28;20225;-57
2022/07/11 06:16:24;;;;;;;2.30;1.80;;;22.40;99.90;;;;;;5073718;28;20237;-58
2022/07/11 06:18:52;;;;;;;2.85;1.85;;;22.40;99.90;;;;;;5073304;28;20217;-57
2022/07/11 06:21:19;;;;;;;3.88;1.90;;;22.60;99.90;;;;;;5073486;28;20307;-57
2022/07/11 06:23:45;;;;;;;4.05;1.95;;;22.70;99.90;;;;;;5073109;28;20362;-57
2022/07/11 06:26:13;;;;;;;2.08;1.67;;;22.80;99.90;;;;;;5073560;28;20553;-58
2022/07/11 06:28:40;;;;;;;3.28;1.70;;;23.00;99.90;;;;;;5073220;28;20212;-58
2022/07/11 06:31:07;;;;;;;2.25;1.85;;;23.20;99.90;;;;;;5073238;28;20205;-58
2022/07/11 06:33:35;;;;;;;2.65;1.50;;;23.30;99.90;;;;;;5072481;28;20660;-58
2022/07/11 06:36:02;;;;;;;3.53;1.80;;;23.60;99.90;;;;;;5072613;28;20315;-58
2022/07/11 06:38:29;;;;;;;3.83;1.95;;;23.80;99.90;;;;;;5072551;28;20300;-59
2022/07/11 06:40:56;;;;;;;3.55;2.40;;;23.90;99.90;;;;;;5072446;28;20212;-58
2022/07/11 06:43:23;;;;;;;2.70;1.80;;;24.10;99.90;;;;;;5072227;28;20237;-59
2022/07/11 06:45:50;;;;;;;2.90;1.88;;;24.30;99.30;;;;;;5072578;28;20562;-58
2022/07/11 06:48:17;;;;;;;2.45;1.83;;;24.40;98.40;;;;;;5072479;28;20201;-59
2022/07/11 06:50:45;;;;;;;1.92;1.83;;;24.50;97.90;;;;;;5072293;28;20738;-59
2022/07/11 06:53:11;;;;;;;2.92;1.77;;;24.50;98.10;;;;;;5072721;28;20271;-57
2022/07/11 06:55:38;;;;;;;3.28;2.35;;;24.60;97.70;;;;;;5072225;28;20731;-57
2022/07/11 06:58:06;;;;;;;3.50;1.92;;;24.60;97.80;;;;;;5072497;28;20218;-57
2022/07/11 07:00:33;;;;;;;4.82;1.85;;;24.90;97.20;;;;;;5072377;28;20262;-58
2022/07/11 07:02:59;;;;;;;2.30;1.50;;;25.30;96.20;;;;;;5072000;28;20283;-58
2022/07/11 07:05:26;;;;;;;2.28;1.60;;;25.50;95.80;;;;;;5072408;28;20251;-58
2022/07/11 07:07:54;;;;;;;3.47;1.75;;;25.70;94.70;;;;;;5072058;28;20216;-57
2022/07/11 07:10:21;;;;;;;1.85;1.50;;;26.00;94.60;;;;;;5072203;28;20205;-58
2022/07/11 07:12:48;;;;;;;1.60;1.50;;;26.40;94.00;;;;;;5071823;28;20228;-58
2022/07/11 07:15:15;;;;;;;1.50;1.40;;;26.80;92.60;;;;;;5072115;28;20200;-57
2022/07/11 07:17:41;;;;;;;2.65;1.67;;;26.90;92.30;;;;;;5071968;28;20205;-57
2022/07/11 07:20:10;;;;;;;2.03;1.70;;;27.10;91.90;;;;;;5072022;28;20266;-57
2022/07/11 07:22:37;;;;;;;1.52;1.30;;;27.60;91.30;;;;;;5072011;28;20252;-57
2022/07/11 07:25:07;;;;;;;1.50;1.40;;;28.40;89.60;;;;;;5072197;28;20620;-58
2022/07/11 07:27:34;;;;;;;2.13;1.35;;;29.30;84.70;;;;;;5072223;28;20460;-57
2022/07/11 07:30:00;;;;;;;3.30;1.48;;;29.50;84.20;;;;;;5071545;28;20208;-58
2022/07/11 07:32:27;;;;;;;1.38;1.25;;;30.00;80.60;;;;;;5072036;28;20250;-58
2022/07/11 07:34:54;;;;;;;1.48;1.10;;;30.40;80.00;;;;;;5071636;28;20212;-58
2022/07/11 07:37:20;;;;;;;1.25;1.15;;;30.70;77.00;;;;;;5071876;28;20229;-58
2022/07/11 07:39:47;;;;;;;2.72;1.10;;;30.80;74.30;;;;;;5072027;28;20212;-58
2022/07/11 07:42:15;;;;;;;1.50;1.00;;;30.10;75.00;;;;;;5071875;28;20627;-57
2022/07/11 07:44:42;;;;;;;4.20;1.95;;;29.00;77.60;;;;;;5071448;28;20270;-57
2022/07/11 07:47:09;;;;;;;1.35;1.20;;;28.60;79.20;;;;;;5071667;28;20288;-58
2022/07/11 07:49:36;;;;;;;1.73;0.98;;;28.40;81.40;;;;;;5072050;28;20208;-57
2022/07/11 07:52:03;;;;;;;1.60;1.40;;;28.60;79.30;;;;;;5072059;28;20219;-57
2022/07/11 07:54:29;;;;;;;1.60;1.50;;;28.60;79.30;;;;;;5071426;28;20712;-57
2022/07/11 07:56:56;;;;;;;1.52;1.42;;;28.70;79.80;;;;;;5071965;28;20232;-57
2022/07/11 07:59:25;;;;;;;1.90;1.60;;;29.70;77.60;;;;;;5071608;28;20250;-58
2022/07/11 08:01:50;;;;;;;1.83;1.20;;;30.80;74.40;;;;;;5071578;28;20205;-57
2022/07/11 08:04:17;;;;;;;1.20;1.10;;;31.60;71.00;;;;;;5071407;28;20227;-58
2022/07/11 08:06:44;;;;;;;3.92;1.23;;;32.30;68.80;;;;;;5071628;28;20669;-58
2022/07/11 08:09:12;;;;;;;3.20;1.50;;;32.60;67.50;;;;;;5071677;28;20216;-59
2022/07/11 08:11:39;;;;;;;0.98;0.88;;;33.00;65.50;;;;;;5071653;28;20619;-58
2022/07/11 08:14:08;;;;;;;2.00;1.10;;;33.70;63.20;;;;;;5071230;28;20777;-58
2022/07/11 08:16:37;;;;;;;2.22;1.17;;;33.90;62.10;;;;;;5071645;28;20237;-58
2022/07/11 08:19:04;;;;;;;3.47;1.10;;;33.90;61.20;;;;;;5071723;28;20346;-59
2022/07/11 08:21:32;;;;;;;2.53;1.10;;;34.00;59.90;;;;;;5071703;28;20200;-59
2022/07/11 08:23:59;;;;;;;1.73;0.85;;;33.80;61.00;;;;;;5071279;28;20228;-59
2022/07/11 08:26:26;;;;;;;1.75;0.88;;;33.70;59.90;;;;;;5071658;28;20254;-59
2022/07/11 08:28:53;;;;;;;2.80;1.00;;;34.00;59.20;;;;;;5071438;28;20219;-58
2022/07/11 08:31:20;;;;;;;2.40;1.20;;;33.20;60.40;;;;;;5071569;28;20209;-59
2022/07/11 08:33:48;;;;;;;2.15;1.33;;;32.50;60.90;;;;;;5071227;28;20228;-59
2022/07/11 08:36:15;;;;;;;1.10;1.00;;;31.90;62.50;;;;;;5071404;28;20231;-58
2022/07/11 08:38:46;;;;;;;3.40;0.93;;;31.70;63.10;;;;;;5071562;28;20213;-59
2022/07/11 08:41:13;;;;;;;1.85;0.80;;;31.50;63.60;;;;;;5071292;28;20213;-58
2022/07/11 08:43:42;;;;;;;0.77;0.77;;;31.40;63.00;;;;;;5073966;28;20244;-59
2022/07/11 08:46:10;;;;;;;2.78;1.17;;;31.20;63.70;;;;;;5075008;28;20212;-58
2022/07/11 08:48:39;;;;;;;1.55;1.13;;;31.10;64.00;;;;;;5075219;28;20216;-59
2022/07/11 08:51:08;;;;;;;1.05;0.93;;;31.00;64.10;;;;;;5074865;28;20653;-59
2022/07/11 08:53:41;;;;;;;2.67;0.85;;;31.50;63.60;;;;;;5074460;28;20260;-59
2022/07/11 08:56:15;;;;;;;1.35;1.05;;;31.70;61.70;;;;;;5074486;28;20712;-57
2022/07/11 08:58:45;;;;;;;1.63;1.00;;;31.00;63.00;;;;;;5074770;28;20209;-57
2022/07/11 09:01:16;;;;;;;1.58;1.08;;;29.90;65.50;;;;;;5074690;28;20205;-58
2022/07/11 09:03:43;;;;;;;1.55;1.15;;;28.80;67.90;;;;;;5074405;28;20298;-58
2022/07/11 09:06:12;;;;;;;1.25;0.95;;;28.40;69.00;;;;;;5074392;28;20204;-57
2022/07/11 09:08:39;;;;;;;1.85;0.90;;;28.20;69.90;;;;;;5074558;28;20208;-58
2022/07/11 09:11:06;;;;;;;1.25;0.93;;;28.30;69.30;;;;;;5074612;28;20209;-57
2022/07/11 09:13:34;;;;;;;2.05;1.00;;;28.50;69.00;;;;;;5074093;28;20227;-58
2022/07/11 09:16:03;;;;;;;1.70;1.17;;;28.80;69.50;;;;;;5074344;28;20201;-57
2022/07/11 09:18:31;;;;;;;1.40;0.95;;;29.00;68.90;;;;;;5074380;28;20211;-57
2022/07/11 09:26:31;;;;;;;2.03;1.20;;;28.40;70.70;;;;;;5074391;28;20204;-58
2022/07/11 09:29:08;;;;;;;1.63;1.08;;;27.60;72.90;;;;;;5075991;28;20213;-57
2022/07/11 09:31:36;;;;;;;2.65;1.10;;;27.20;73.30;;;;;;5075474;28;20299;-57
2022/07/11 09:34:06;;;;;;;2.95;1.10;;;26.90;74.00;;;;;;5074518;28;20745;-57
2022/07/11 09:36:41;;;;;;;1.65;0.90;;;27.10;73.90;;;;;;5074283;28;20235;-57
2022/07/11 09:39:11;;;;;;;1.85;1.30;;;27.20;73.60;;;;;;5074082;28;20216;-57
2022/07/11 09:41:39;;;;;;;3.13;1.40;;;27.50;72.90;;;;;;5074045;28;20216;-58
2022/07/11 09:44:14;;;;;;;2.90;1.30;;;27.80;72.70;;;;;;5058533;28;20237;-58
2022/07/11 09:46:41;;;;;;;2.17;1.30;;;28.30;72.10;;;;;;5067256;28;20200;-58
2022/07/11 09:49:08;;;;;;;1.95;1.65;;;28.90;71.60;;;;;;5073056;28;20213;-58
2022/07/11 09:51:36;;;;;;;1.58;1.40;;;29.40;69.60;;;;;;5072733;28;20665;-59
2022/07/11 09:54:05;;;;;;;1.50;1.40;;;29.80;68.80;;;;;;5071791;28;20225;-59
2022/07/11 09:56:40;;;;;;;3.42;1.83;;;30.00;68.40;;;;;;5072732;28;20256;-59
2022/07/11 09:59:08;;;;;;;1.85;1.35;;;30.00;67.50;;;;;;5072845;28;20687;-59
2022/07/11 10:01:35;;;;;;;2.13;1.10;;;29.80;67.60;;;;;;5073517;28;20205;-61
2022/07/11 10:04:03;;;;;;;1.60;1.40;;;29.60;67.40;;;;;;5072535;28;20224;-60
2022/07/11 10:06:29;;;;;;;1.63;1.20;;;29.70;66.90;;;;;;5073137;28;20205;-59
2022/07/11 10:08:57;;;;;;;1.17;1.00;;;29.70;66.30;;;;;;5072801;28;20620;-59
2022/07/11 10:11:24;;;;;;;1.05;0.98;;;29.40;66.00;;;;;;5072952;28;20307;-60
2022/07/11 10:13:52;;;;;;;2.22;1.25;;;29.20;66.50;;;;;;5071922;28;20225;-59
2022/07/11 10:16:43;;;;;;;1.33;1.08;;;29.10;67.50;;;;;;5072364;28;20239;-60
2022/07/11 10:19:19;;;;;;;1.27;1.13;;;28.90;67.90;;;;;;5072183;28;20219;-59
2022/07/11 10:21:52;;;;;;;0.95;0.93;;;28.80;68.50;;;;;;5072624;28;20216;-59
2022/07/11 10:24:29;;;;;;;1.17;1.00;;;28.70;68.60;;;;;;5072807;28;20235;-66
2022/07/11 10:27:01;;;;;;;1.42;1.10;;;28.90;68.30;;;;;;5073572;28;20215;-60
2022/07/11 10:29:35;;;;;;;1.27;1.00;;;29.20;67.10;;;;;;5073664;28;20259;-60
2022/07/11 10:32:06;;;;;;;4.95;1.80;;;29.50;67.00;;;;;;5073991;28;20212;-60
2022/07/11 10:34:33;;;;;;;3.47;1.73;;;29.80;66.70;;;;;;5073533;28;20228;-61
2022/07/11 10:37:01;;;;;;;1.60;1.40;;;29.90;67.00;;;;;;5073406;28;20707;-61
2022/07/11 10:39:28;;;;;;;2.63;1.20;;;29.90;66.40;;;;;;5073617;28;20295;-61
2022/07/11 10:41:55;;;;;;;2.22;1.30;;;29.80;66.80;;;;;;5073663;28;20209;-60
2022/07/11 10:44:22;;;;;;;3.35;1.10;;;29.90;66.40;;;;;;5073788;28;20235;-60
2022/07/11 10:46:51;;;;;;;1.58;0.98;;;29.80;65.70;;;;;;5073823;28;20205;-60
2022/07/11 10:49:25;;;;;;;4.53;0.98;;;29.30;65.80;;;;;;5074022;28;20245;-60
2022/07/11 10:51:59;;;;;;;1.25;0.90;;;29.20;66.10;;;;;;5074271;28;20207;-60
2022/07/11 10:54:37;;;;;;;3.70;1.00;;;29.00;65.70;;;;;;5073771;28;20323;-60
2022/07/11 10:57:14;;;;;;;4.05;1.05;;;28.70;66.50;;;;;;5075544;28;20224;-60
2022/07/11 10:59:58;;;;;;;5.47;1.60;;;28.40;67.90;;;;;;5075434;28;20652;-60
2022/07/11 11:02:26;;;;;;;1.80;1.05;;;28.50;68.50;;;;;;5075548;28;20213;-60
2022/07/11 11:04:58;;;;;;;3.95;1.17;;;28.80;68.00;;;;;;5073699;28;20205;-60
2022/07/11 11:07:29;;;;;;;2.15;1.02;;;29.10;66.60;;;;;;5074675;28;20250;-60
2022/07/11 11:09:57;;;;;;;2.38;1.30;;;29.40;66.00;;;;;;5073585;28;20205;-60
2022/07/11 11:12:58;;;;;;;1.80;1.45;;;29.40;66.00;;;;;;5073613;28;20209;-62
2022/07/11 11:15:35;;;;;;;2.70;1.58;;;29.50;66.10;;;;;;5074000;28;20208;-60
2022/07/11 11:18:37;;;;;;;1.38;1.15;;;29.70;65.50;;;;;;5074459;28;20227;-60
2022/07/11 11:21:20;;;;;;;2.30;1.00;;;30.00;64.70;;;;;;5073938;28;20274;-60
2022/07/11 11:24:06;;;;;;;1.45;1.00;;;30.50;63.50;;;;;;5073921;28;20228;-60
2022/07/11 11:26:50;;;;;;;2.03;1.20;;;30.90;62.80;;;;;;5073955;28;20357;-60
2022/07/11 11:29:25;;;;;;;3.28;1.40;;;31.10;62.60;;;;;;5073762;28;20211;-60
2022/07/11 11:31:57;;;;;;;4.00;1.23;;;30.70;62.90;;;;;;5073256;28;20200;-60
2022/07/11 11:34:26;;;;;;;1.20;1.10;;;30.50;62.40;;;;;;5072840;28;20229;-60
2022/07/11 11:37:01;;;;;;;1.35;1.00;;;30.30;63.30;;;;;;5072892;28;20228;-60
2022/07/11 11:39:32;;;;;;;2.70;1.70;;;30.50;62.80;;;;;;5073236;28;20215;-61
2022/07/11 11:42:04;;;;;;;2.30;1.23;;;31.00;61.80;;;;;;5073013;28;20699;-61
2022/07/11 11:44:31;;;;;;;2.17;1.40;;;31.70;60.90;;;;;;5073439;28;20263;-61
2022/07/11 11:46:58;;;;;;;2.63;1.25;;;31.80;60.20;;;;;;5073766;28;20312;-61
2022/07/11 11:49:26;;;;;;;2.60;0.90;;;31.80;60.80;;;;;;5073871;28;20209;-60
2022/07/11 11:51:55;;;;;;;2.25;1.10;;;31.40;61.40;;;;;;5072934;28;20239;-61
2022/07/11 11:54:23;;;;;;;2.38;1.30;;;31.20;61.30;;;;;;5072535;28;20225;-60
2022/07/11 11:56:50;;;;;;;4.50;1.30;;;30.70;62.00;;;;;;5072363;28;20211;-60
2022/07/11 11:59:16;;;;;;;2.75;1.00;;;30.60;63.40;;;;;;5072432;28;20212;-60
2022/07/11 12:01:45;;;;;;;2.15;1.20;;;30.90;62.50;;;;;;5072966;28;20212;-60
2022/07/11 12:04:14;;;;;;;2.30;0.88;;;31.40;60.70;;;;;;5072605;28;20221;-60
2022/07/11 12:06:44;;;;;;;1.48;1.20;;;31.50;60.40;;;;;;5072860;28;20321;-61
2022/07/11 12:09:12;;;;;;;1.67;1.30;;;30.90;61.60;;;;;;5072596;28;20677;-61
2022/07/11 12:11:40;;;;;;;3.33;1.00;;;30.60;62.00;;;;;;5073025;28;20208;-61
2022/07/11 12:14:08;;;;;;;1.98;1.50;;;30.50;62.80;;;;;;5073056;28;20229;-60
2022/07/11 12:16:42;;;;;;;1.98;1.20;;;30.20;63.30;;;;;;5074441;28;20212;-61
2022/07/11 12:19:11;;;;;;;3.13;2.08;;;30.30;62.80;;;;;;5076693;28;20201;-61
2022/07/11 12:21:39;;;;;;;2.85;1.10;;;30.30;63.10;;;;;;5076585;28;20208;-61
2022/07/11 12:24:09;;;;;;;2.13;1.20;;;30.10;63.90;;;;;;5076538;28;20735;-61
2022/07/11 12:26:37;;;;;;;2.60;1.27;;;30.10;64.50;;;;;;5076803;28;20262;-61
2022/07/11 12:29:10;;;;;;;1.52;1.23;;;30.40;63.60;;;;;;5076743;28;20255;-60
2022/07/11 12:31:45;;;;;;;2.00;1.23;;;30.40;62.50;;;;;;5076726;28;20200;-61
2022/07/11 12:34:12;;;;;;;2.92;1.40;;;30.30;62.90;;;;;;5075888;28;20216;-60
2022/07/11 12:36:39;;;;;;;1.20;1.10;;;30.20;62.80;;;;;;5076037;28;20216;-61
2022/07/11 12:39:08;;;;;;;1.58;1.20;;;30.00;63.20;;;;;;5076434;28;20232;-59
2022/07/11 12:41:35;;;;;;;2.38;1.15;;;30.10;62.60;;;;;;5076251;28;20300;-60
2022/07/11 12:46:47;;;;;;;3.65;1.30;;;30.60;61.70;;;;;;5076088;28;20322;-60
2022/07/11 12:49:15;;;;;;;1.30;1.20;;;30.50;62.60;;;;;;5076378;28;20251;-61
2022/07/11 12:51:43;;;;;;;1.63;0.98;;;30.20;63.60;;;;;;5075887;28;20212;-61
2022/07/11 12:54:13;;;;;;;1.90;1.50;;;30.50;63.20;;;;;;5076452;28;20232;-60
2022/07/11 12:56:41;;;;;;;3.28;1.70;;;30.30;63.10;;;;;;5076846;28;20672;-60
2022/07/11 12:59:19;;;;;;;2.58;1.20;;;30.00;64.30;;;;;;5076778;28;20723;-60
2022/07/11 13:01:56;;;;;;;2.05;1.55;;;29.90;64.40;;;;;;5076298;28;20266;-60